sensor_id;sensor_type;location;lat;lon;timestamp;P1;durP1;ratioP1;P2;durP2;ratioP2
20080;SDS011;10200;49.232;9.222;2023-10-09T00:01:45;10.50;;;3.80;;
20080;SDS011;10200;49.232;9.222;2023-10-09T00:04:11;4.67;;;3.93;;
20080;SDS011;10200;49.232;9.222;2023-10-09T00:06:39;10.67;;;4.83;;
20080;SDS011;10200;49.232;9.222;2023-10-09T00:09:07;9.47;;;4.67;;
20080;SDS011;10200;49.232;9.222;2023-10-09T00:11:56;9.13;;;4.57;;
20080;SDS011;10200;49.232;9.222;2023-10-09T00:14:31;8.03;;;5.03;;
20080;SDS011;10200;49.232;9.222;2023-10-09T00:17:04;8.70;;;3.80;;
20080;SDS011;10200;49.232;9.222;2023-10-09T00:19:50;5.30;;;3.43;;
20080;SDS011;10200;49.232;9.222;2023-10-09T00:22:16;6.53;;;3.20;;
20080;SDS011;10200;49.232;9.222;2023-10-09T00:24:54;5.47;;;3.30;;
20080;SDS011;10200;49.232;9.222;2023-10-09T00:27:40;3.80;;;3.03;;
20080;SDS011;10200;49.232;9.222;2023-10-09T00:30:17;4.70;;;3.40;;
20080;SDS011;10200;49.232;9.222;2023-10-09T00:32:54;5.50;;;3.77;;
20080;SDS011;10200;49.232;9.222;2023-10-09T00:35:23;3.73;;;2.83;;
20080;SDS011;10200;49.232;9.222;2023-10-09T00:38:12;8.80;;;3.20;;
20080;SDS011;10200;49.232;9.222;2023-10-09T00:40:49;5.63;;;3.23;;
20080;SDS011;10200;49.232;9.222;2023-10-09T00:43:34;6.27;;;3.70;;
20080;SDS011;10200;49.232;9.222;2023-10-09T00:46:02;15.80;;;3.80;;
20080;SDS011;10200;49.232;9.222;2023-10-09T00:48:29;6.33;;;3.47;;
20080;SDS011;10200;49.232;9.222;2023-10-09T00:50:59;7.57;;;3.53;;
20080;SDS011;10200;49.232;9.222;2023-10-09T00:53:25;5.60;;;3.63;;
20080;SDS011;10200;49.232;9.222;2023-10-09T00:55:59;7.10;;;3.97;;
20080;SDS011;10200;49.232;9.222;2023-10-09T00:58:43;5.77;;;3.53;;
20080;SDS011;10200;49.232;9.222;2023-10-09T01:01:21;7.10;;;3.80;;
20080;SDS011;10200;49.232;9.222;2023-10-09T01:03:53;5.90;;;3.50;;
20080;SDS011;10200;49.232;9.222;2023-10-09T01:06:19;7.77;;;4.03;;
20080;SDS011;10200;49.232;9.222;2023-10-09T01:08:52;6.10;;;3.90;;
20080;SDS011;10200;49.232;9.222;2023-10-09T01:11:36;7.77;;;3.67;;
20080;SDS011;10200;49.232;9.222;2023-10-09T01:14:13;6.93;;;3.80;;
20080;SDS011;10200;49.232;9.222;2023-10-09T01:16:40;7.10;;;3.73;;
20080;SDS011;10200;49.232;9.222;2023-10-09T01:19:07;7.30;;;3.27;;
20080;SDS011;10200;49.232;9.222;2023-10-09T01:21:38;3.73;;;2.60;;
20080;SDS011;10200;49.232;9.222;2023-10-09T01:24:07;5.00;;;3.13;;
20080;SDS011;10200;49.232;9.222;2023-10-09T01:26:39;4.20;;;3.07;;
20080;SDS011;10200;49.232;9.222;2023-10-09T01:29:12;5.07;;;2.70;;
20080;SDS011;10200;49.232;9.222;2023-10-09T01:31:46;3.50;;;2.67;;
20080;SDS011;10200;49.232;9.222;2023-10-09T01:34:33;4.33;;;3.13;;
20080;SDS011;10200;49.232;9.222;2023-10-09T01:37:09;4.50;;;3.20;;
20080;SDS011;10200;49.232;9.222;2023-10-09T01:39:57;5.43;;;3.87;;
20080;SDS011;10200;49.232;9.222;2023-10-09T01:42:24;6.00;;;3.67;;
20080;SDS011;10200;49.232;9.222;2023-10-09T01:44:59;8.73;;;4.17;;
20080;SDS011;10200;49.232;9.222;2023-10-09T01:47:41;6.47;;;3.50;;
20080;SDS011;10200;49.232;9.222;2023-10-09T01:50:12;6.37;;;3.50;;
20080;SDS011;10200;49.232;9.222;2023-10-09T01:52:45;7.43;;;3.63;;
20080;SDS011;10200;49.232;9.222;2023-10-09T01:55:11;5.97;;;3.90;;
20080;SDS011;10200;49.232;9.222;2023-10-09T01:57:53;7.77;;;4.43;;
20080;SDS011;10200;49.232;9.222;2023-10-09T02:00:19;9.53;;;4.70;;
20080;SDS011;10200;49.232;9.222;2023-10-09T02:02:49;7.20;;;4.70;;
20080;SDS011;10200;49.232;9.222;2023-10-09T02:05:15;8.67;;;4.90;;
20080;SDS011;10200;49.232;9.222;2023-10-09T02:07:41;7.80;;;4.17;;
20080;SDS011;10200;49.232;9.222;2023-10-09T02:10:16;9.97;;;4.40;;
20080;SDS011;10200;49.232;9.222;2023-10-09T02:13:01;8.70;;;4.20;;
20080;SDS011;10200;49.232;9.222;2023-10-09T02:15:32;6.70;;;4.77;;
20080;SDS011;10200;49.232;9.222;2023-10-09T02:23:37;8.37;;;4.70;;
20080;SDS011;10200;49.232;9.222;2023-10-09T02:26:05;5.67;;;4.50;;
20080;SDS011;10200;49.232;9.222;2023-10-09T02:28:34;8.37;;;4.40;;
20080;SDS011;10200;49.232;9.222;2023-10-09T02:31:01;9.27;;;4.13;;
20080;SDS011;10200;49.232;9.222;2023-10-09T02:33:35;8.53;;;4.07;;
20080;SDS011;10200;49.232;9.222;2023-10-09T02:36:04;7.27;;;3.93;;
20080;SDS011;10200;49.232;9.222;2023-10-09T02:38:33;6.57;;;4.50;;
20080;SDS011;10200;49.232;9.222;2023-10-09T02:41:01;8.60;;;4.60;;
20080;SDS011;10200;49.232;9.222;2023-10-09T02:43:30;11.87;;;5.23;;
20080;SDS011;10200;49.232;9.222;2023-10-09T02:46:20;6.33;;;3.53;;
20080;SDS011;10200;49.232;9.222;2023-10-09T02:48:53;8.00;;;4.60;;
20080;SDS011;10200;49.232;9.222;2023-10-09T02:51:23;7.67;;;4.00;;
20080;SDS011;10200;49.232;9.222;2023-10-09T02:56:20;11.23;;;5.07;;
20080;SDS011;10200;49.232;9.222;2023-10-09T02:59:04;8.47;;;3.73;;
20080;SDS011;10200;49.232;9.222;2023-10-09T03:01:34;9.67;;;4.70;;
20080;SDS011;10200;49.232;9.222;2023-10-09T03:04:02;7.77;;;4.20;;
20080;SDS011;10200;49.232;9.222;2023-10-09T03:06:32;6.73;;;4.40;;
20080;SDS011;10200;49.232;9.222;2023-10-09T03:09:03;11.50;;;4.63;;
20080;SDS011;10200;49.232;9.222;2023-10-09T03:11:42;11.93;;;5.37;;
20080;SDS011;10200;49.232;9.222;2023-10-09T03:14:13;9.00;;;4.67;;
20080;SDS011;10200;49.232;9.222;2023-10-09T03:16:39;10.87;;;4.87;;
20080;SDS011;10200;49.232;9.222;2023-10-09T03:19:04;7.77;;;4.80;;
20080;SDS011;10200;49.232;9.222;2023-10-09T03:21:30;7.77;;;4.83;;
20080;SDS011;10200;49.232;9.222;2023-10-09T03:23:55;8.20;;;4.33;;
20080;SDS011;10200;49.232;9.222;2023-10-09T03:26:21;7.53;;;4.80;;
20080;SDS011;10200;49.232;9.222;2023-10-09T03:28:51;8.13;;;4.63;;
20080;SDS011;10200;49.232;9.222;2023-10-09T03:31:19;11.90;;;4.60;;
20080;SDS011;10200;49.232;9.222;2023-10-09T03:33:46;13.73;;;4.67;;
20080;SDS011;10200;49.232;9.222;2023-10-09T03:36:12;6.03;;;4.30;;
20080;SDS011;10200;49.232;9.222;2023-10-09T03:38:38;7.67;;;5.07;;
20080;SDS011;10200;49.232;9.222;2023-10-09T03:41:07;6.90;;;4.47;;
20080;SDS011;10200;49.232;9.222;2023-10-09T03:43:37;11.10;;;4.83;;
20080;SDS011;10200;49.232;9.222;2023-10-09T03:46:05;10.43;;;4.33;;
20080;SDS011;10200;49.232;9.222;2023-10-09T03:48:49;9.93;;;5.00;;
20080;SDS011;10200;49.232;9.222;2023-10-09T03:51:16;6.57;;;4.33;;
20080;SDS011;10200;49.232;9.222;2023-10-09T03:53:48;9.20;;;5.03;;
20080;SDS011;10200;49.232;9.222;2023-10-09T03:56:15;8.77;;;4.73;;
20080;SDS011;10200;49.232;9.222;2023-10-09T03:58:43;9.23;;;4.77;;
20080;SDS011;10200;49.232;9.222;2023-10-09T04:01:20;9.33;;;4.57;;
20080;SDS011;10200;49.232;9.222;2023-10-09T04:03:47;9.23;;;4.47;;
20080;SDS011;10200;49.232;9.222;2023-10-09T04:06:13;8.40;;;4.80;;
20080;SDS011;10200;49.232;9.222;2023-10-09T04:08:40;6.87;;;4.60;;
20080;SDS011;10200;49.232;9.222;2023-10-09T04:11:13;8.83;;;5.20;;
20080;SDS011;10200;49.232;9.222;2023-10-09T04:13:45;12.40;;;6.23;;
20080;SDS011;10200;49.232;9.222;2023-10-09T04:16:11;9.77;;;4.97;;
20080;SDS011;10200;49.232;9.222;2023-10-09T04:18:59;9.80;;;4.60;;
20080;SDS011;10200;49.232;9.222;2023-10-09T04:21:30;8.33;;;4.47;;
20080;SDS011;10200;49.232;9.222;2023-10-09T04:24:06;11.70;;;4.27;;
20080;SDS011;10200;49.232;9.222;2023-10-09T04:26:41;7.63;;;4.90;;
20080;SDS011;10200;49.232;9.222;2023-10-09T04:29:11;7.07;;;4.63;;
20080;SDS011;10200;49.232;9.222;2023-10-09T04:31:56;7.20;;;5.07;;
20080;SDS011;10200;49.232;9.222;2023-10-09T04:34:24;8.40;;;5.00;;
20080;SDS011;10200;49.232;9.222;2023-10-09T04:36:53;8.37;;;4.67;;
20080;SDS011;10200;49.232;9.222;2023-10-09T04:39:25;15.37;;;5.97;;
20080;SDS011;10200;49.232;9.222;2023-10-09T04:41:54;8.23;;;4.57;;
20080;SDS011;10200;49.232;9.222;2023-10-09T04:44:42;7.10;;;4.13;;
20080;SDS011;10200;49.232;9.222;2023-10-09T04:47:29;8.30;;;4.47;;
20080;SDS011;10200;49.232;9.222;2023-10-09T04:50:02;7.83;;;4.77;;
20080;SDS011;10200;49.232;9.222;2023-10-09T04:52:36;6.70;;;4.60;;
20080;SDS011;10200;49.232;9.222;2023-10-09T04:55:03;5.73;;;4.13;;
20080;SDS011;10200;49.232;9.222;2023-10-09T04:57:35;8.07;;;3.80;;
20080;SDS011;10200;49.232;9.222;2023-10-09T05:00:11;5.33;;;4.47;;
20080;SDS011;10200;49.232;9.222;2023-10-09T05:02:49;8.40;;;4.60;;
20080;SDS011;10200;49.232;9.222;2023-10-09T05:05:25;5.87;;;4.60;;
20080;SDS011;10200;49.232;9.222;2023-10-09T05:10:50;9.70;;;4.93;;
20080;SDS011;10200;49.232;9.222;2023-10-09T05:13:23;7.10;;;4.50;;
20080;SDS011;10200;49.232;9.222;2023-10-09T05:16:14;7.10;;;4.20;;
20080;SDS011;10200;49.232;9.222;2023-10-09T05:18:54;9.47;;;4.70;;
20080;SDS011;10200;49.232;9.222;2023-10-09T05:21:52;10.00;;;5.27;;
20080;SDS011;10200;49.232;9.222;2023-10-09T05:24:18;6.57;;;4.40;;
20080;SDS011;10200;49.232;9.222;2023-10-09T05:26:48;5.60;;;4.00;;
20080;SDS011;10200;49.232;9.222;2023-10-09T05:29:16;11.60;;;5.23;;
20080;SDS011;10200;49.232;9.222;2023-10-09T05:31:46;8.97;;;4.77;;
20080;SDS011;10200;49.232;9.222;2023-10-09T05:34:29;8.00;;;5.10;;
20080;SDS011;10200;49.232;9.222;2023-10-09T05:37:21;9.77;;;5.20;;
20080;SDS011;10200;49.232;9.222;2023-10-09T05:39:53;8.83;;;4.67;;
20080;SDS011;10200;49.232;9.222;2023-10-09T05:45:02;7.93;;;4.47;;
20080;SDS011;10200;49.232;9.222;2023-10-09T05:47:45;9.60;;;4.77;;
20080;SDS011;10200;49.232;9.222;2023-10-09T05:50:28;8.20;;;5.10;;
20080;SDS011;10200;49.232;9.222;2023-10-09T05:52:57;9.93;;;4.47;;
20080;SDS011;10200;49.232;9.222;2023-10-09T05:55:34;9.53;;;5.33;;
20080;SDS011;10200;49.232;9.222;2023-10-09T05:58:18;8.10;;;4.23;;
20080;SDS011;10200;49.232;9.222;2023-10-09T06:01:10;9.27;;;4.93;;
20080;SDS011;10200;49.232;9.222;2023-10-09T06:03:53;15.23;;;4.63;;
20080;SDS011;10200;49.232;9.222;2023-10-09T06:06:20;8.60;;;4.53;;
20080;SDS011;10200;49.232;9.222;2023-10-09T06:09:07;8.27;;;4.53;;
20080;SDS011;10200;49.232;9.222;2023-10-09T06:11:38;9.83;;;4.63;;
20080;SDS011;10200;49.232;9.222;2023-10-09T06:14:17;13.73;;;5.60;;
20080;SDS011;10200;49.232;9.222;2023-10-09T06:16:55;8.47;;;5.07;;
20080;SDS011;10200;49.232;9.222;2023-10-09T06:19:21;10.33;;;4.47;;
20080;SDS011;10200;49.232;9.222;2023-10-09T06:21:47;10.83;;;4.53;;
20080;SDS011;10200;49.232;9.222;2023-10-09T06:24:31;10.87;;;5.00;;
20080;SDS011;10200;49.232;9.222;2023-10-09T06:27:15;10.27;;;5.07;;
20080;SDS011;10200;49.232;9.222;2023-10-09T06:29:59;8.60;;;4.33;;
20080;SDS011;10200;49.232;9.222;2023-10-09T06:32:50;9.10;;;4.47;;
20080;SDS011;10200;49.232;9.222;2023-10-09T06:35:16;8.27;;;4.23;;
20080;SDS011;10200;49.232;9.222;2023-10-09T06:37:55;7.87;;;4.87;;
20080;SDS011;10200;49.232;9.222;2023-10-09T06:40:34;14.87;;;4.87;;
20080;SDS011;10200;49.232;9.222;2023-10-09T06:43:20;7.47;;;4.53;;
20080;SDS011;10200;49.232;9.222;2023-10-09T06:45:56;9.53;;;4.90;;
20080;SDS011;10200;49.232;9.222;2023-10-09T06:48:27;9.23;;;4.77;;
20080;SDS011;10200;49.232;9.222;2023-10-09T06:51:05;13.17;;;5.43;;
20080;SDS011;10200;49.232;9.222;2023-10-09T06:53:57;9.33;;;5.13;;
20080;SDS011;10200;49.232;9.222;2023-10-09T06:56:29;10.43;;;5.33;;
20080;SDS011;10200;49.232;9.222;2023-10-09T06:58:55;9.50;;;5.23;;
20080;SDS011;10200;49.232;9.222;2023-10-09T07:01:29;13.03;;;7.63;;
20080;SDS011;10200;49.232;9.222;2023-10-09T07:04:04;18.33;;;10.83;;
20080;SDS011;10200;49.232;9.222;2023-10-09T07:06:53;17.60;;;12.73;;
20080;SDS011;10200;49.232;9.222;2023-10-09T07:09:22;20.27;;;15.13;;
20080;SDS011;10200;49.232;9.222;2023-10-09T07:11:48;20.90;;;12.67;;
20080;SDS011;10200;49.232;9.222;2023-10-09T07:16:59;13.50;;;8.50;;
20080;SDS011;10200;49.232;9.222;2023-10-09T07:19:27;15.37;;;7.57;;
20080;SDS011;10200;49.232;9.222;2023-10-09T07:21:58;9.67;;;5.23;;
20080;SDS011;10200;49.232;9.222;2023-10-09T07:24:28;13.27;;;5.60;;
20080;SDS011;10200;49.232;9.222;2023-10-09T07:27:11;8.43;;;5.07;;
20080;SDS011;10200;49.232;9.222;2023-10-09T07:29:41;10.13;;;5.40;;
20080;SDS011;10200;49.232;9.222;2023-10-09T07:32:13;8.23;;;5.17;;
20080;SDS011;10200;49.232;9.222;2023-10-09T07:34:45;10.53;;;5.33;;
20080;SDS011;10200;49.232;9.222;2023-10-09T07:37:26;8.50;;;4.93;;
20080;SDS011;10200;49.232;9.222;2023-10-09T07:40:03;9.20;;;4.77;;
20080;SDS011;10200;49.232;9.222;2023-10-09T07:42:32;11.03;;;5.17;;
20080;SDS011;10200;49.232;9.222;2023-10-09T07:45:09;6.67;;;4.57;;
20080;SDS011;10200;49.232;9.222;2023-10-09T07:47:58;9.47;;;5.43;;
20080;SDS011;10200;49.232;9.222;2023-10-09T07:50:24;8.80;;;5.57;;
20080;SDS011;10200;49.232;9.222;2023-10-09T07:52:56;11.00;;;5.67;;
20080;SDS011;10200;49.232;9.222;2023-10-09T07:55:40;14.70;;;5.60;;
20080;SDS011;10200;49.232;9.222;2023-10-09T07:58:11;13.47;;;6.23;;
20080;SDS011;10200;49.232;9.222;2023-10-09T08:00:37;11.40;;;5.43;;
20080;SDS011;10200;49.232;9.222;2023-10-09T08:03:23;11.47;;;5.57;;
20080;SDS011;10200;49.232;9.222;2023-10-09T08:05:50;9.67;;;5.57;;
20080;SDS011;10200;49.232;9.222;2023-10-09T08:08:19;14.50;;;6.43;;
20080;SDS011;10200;49.232;9.222;2023-10-09T08:10:53;7.90;;;5.50;;
20080;SDS011;10200;49.232;9.222;2023-10-09T08:13:38;11.07;;;5.37;;
20080;SDS011;10200;49.232;9.222;2023-10-09T08:16:21;12.33;;;6.43;;
20080;SDS011;10200;49.232;9.222;2023-10-09T08:19:01;9.50;;;6.17;;
20080;SDS011;10200;49.232;9.222;2023-10-09T08:21:48;13.63;;;6.27;;
20080;SDS011;10200;49.232;9.222;2023-10-09T08:24:33;18.73;;;7.40;;
20080;SDS011;10200;49.232;9.222;2023-10-09T08:27:18;12.97;;;6.07;;
20080;SDS011;10200;49.232;9.222;2023-10-09T08:29:59;13.90;;;6.37;;
20080;SDS011;10200;49.232;9.222;2023-10-09T08:32:47;9.93;;;5.73;;
20080;SDS011;10200;49.232;9.222;2023-10-09T08:35:32;16.87;;;6.83;;
20080;SDS011;10200;49.232;9.222;2023-10-09T08:38:02;10.80;;;6.13;;
20080;SDS011;10200;49.232;9.222;2023-10-09T08:40:37;10.00;;;5.93;;
20080;SDS011;10200;49.232;9.222;2023-10-09T08:46:02;10.83;;;6.53;;
20080;SDS011;10200;49.232;9.222;2023-10-09T08:48:27;12.27;;;5.43;;
20080;SDS011;10200;49.232;9.222;2023-10-09T08:50:55;8.57;;;5.40;;
20080;SDS011;10200;49.232;9.222;2023-10-09T08:53:21;17.60;;;6.33;;
20080;SDS011;10200;49.232;9.222;2023-10-09T08:55:55;13.50;;;5.83;;
20080;SDS011;10200;49.232;9.222;2023-10-09T08:58:22;14.77;;;6.47;;
20080;SDS011;10200;49.232;9.222;2023-10-09T09:00:58;12.30;;;6.27;;
20080;SDS011;10200;49.232;9.222;2023-10-09T09:03:25;13.30;;;6.50;;
20080;SDS011;10200;49.232;9.222;2023-10-09T09:05:58;12.60;;;6.43;;
20080;SDS011;10200;49.232;9.222;2023-10-09T09:08:29;12.97;;;6.43;;
20080;SDS011;10200;49.232;9.222;2023-10-09T09:10:59;13.73;;;6.80;;
20080;SDS011;10200;49.232;9.222;2023-10-09T09:13:41;17.57;;;7.63;;
20080;SDS011;10200;49.232;9.222;2023-10-09T09:16:17;15.53;;;6.33;;
20080;SDS011;10200;49.232;9.222;2023-10-09T09:21:41;12.93;;;5.67;;
20080;SDS011;10200;49.232;9.222;2023-10-09T09:24:10;9.13;;;5.27;;
20080;SDS011;10200;49.232;9.222;2023-10-09T09:27:00;13.93;;;6.40;;
20080;SDS011;10200;49.232;9.222;2023-10-09T09:32:12;19.53;;;6.97;;
20080;SDS011;10200;49.232;9.222;2023-10-09T09:35:02;14.45;;;5.85;;
20080;SDS011;10200;49.232;9.222;2023-10-09T09:37:31;18.73;;;6.53;;
20080;SDS011;10200;49.232;9.222;2023-10-09T09:40:07;24.35;;;7.07;;
20080;SDS011;10200;49.232;9.222;2023-10-09T09:42:51;20.48;;;5.63;;
20080;SDS011;10200;49.232;9.222;2023-10-09T09:45:17;14.75;;;5.15;;
20080;SDS011;10200;49.232;9.222;2023-10-09T09:47:48;15.23;;;6.38;;
20080;SDS011;10200;49.232;9.222;2023-10-09T09:50:21;19.65;;;9.98;;
20080;SDS011;10200;49.232;9.222;2023-10-09T09:52:51;34.38;;;12.45;;
20080;SDS011;10200;49.232;9.222;2023-10-09T09:55:23;16.40;;;7.90;;
20080;SDS011;10200;49.232;9.222;2023-10-09T09:57:56;16.00;;;6.18;;
20080;SDS011;10200;49.232;9.222;2023-10-09T10:00:25;19.95;;;6.68;;
20080;SDS011;10200;49.232;9.222;2023-10-09T10:05:59;14.90;;;6.28;;
20080;SDS011;10200;49.232;9.222;2023-10-09T10:08:35;21.55;;;6.30;;
20080;SDS011;10200;49.232;9.222;2023-10-09T10:11:04;15.57;;;6.88;;
20080;SDS011;10200;49.232;9.222;2023-10-09T10:13:54;17.88;;;5.68;;
20080;SDS011;10200;49.232;9.222;2023-10-09T10:16:27;13.80;;;6.38;;
20080;SDS011;10200;49.232;9.222;2023-10-09T10:21:33;15.23;;;6.13;;
20080;SDS011;10200;49.232;9.222;2023-10-09T10:24:40;12.57;;;5.35;;
20080;SDS011;10200;49.232;9.222;2023-10-09T10:27:20;20.73;;;6.82;;
20080;SDS011;10200;49.232;9.222;2023-10-09T10:32:58;17.90;;;6.03;;
20080;SDS011;10200;49.232;9.222;2023-10-09T10:35:42;15.65;;;7.03;;
20080;SDS011;10200;49.232;9.222;2023-10-09T10:41:10;10.38;;;5.32;;
20080;SDS011;10200;49.232;9.222;2023-10-09T10:43:36;13.20;;;4.95;;
20080;SDS011;10200;49.232;9.222;2023-10-09T10:46:11;11.02;;;5.50;;
20080;SDS011;10200;49.232;9.222;2023-10-09T10:48:41;16.10;;;5.35;;
20080;SDS011;10200;49.232;9.222;2023-10-09T10:51:12;21.35;;;5.75;;
20080;SDS011;10200;49.232;9.222;2023-10-09T10:53:49;24.77;;;6.93;;
20080;SDS011;10200;49.232;9.222;2023-10-09T10:56:24;19.73;;;4.70;;
20080;SDS011;10200;49.232;9.222;2023-10-09T10:59:10;18.83;;;4.93;;
20080;SDS011;10200;49.232;9.222;2023-10-09T11:01:37;18.13;;;6.32;;
20080;SDS011;10200;49.232;9.222;2023-10-09T11:04:21;15.60;;;5.07;;
20080;SDS011;10200;49.232;9.222;2023-10-09T11:07:08;16.77;;;6.28;;
20080;SDS011;10200;49.232;9.222;2023-10-09T11:09:50;9.05;;;5.22;;
20080;SDS011;10200;49.232;9.222;2023-10-09T11:12:29;13.85;;;5.25;;
20080;SDS011;10200;49.232;9.222;2023-10-09T11:15:07;15.90;;;5.97;;
20080;SDS011;10200;49.232;9.222;2023-10-09T11:18:01;15.43;;;5.82;;
20080;SDS011;10200;49.232;9.222;2023-10-09T11:20:51;21.27;;;5.72;;
20080;SDS011;10200;49.232;9.222;2023-10-09T11:23:30;15.55;;;5.40;;
20080;SDS011;10200;49.232;9.222;2023-10-09T11:25:59;17.70;;;5.45;;
20080;SDS011;10200;49.232;9.222;2023-10-09T11:28:45;13.32;;;5.63;;
20080;SDS011;10200;49.232;9.222;2023-10-09T11:31:22;15.25;;;6.20;;
20080;SDS011;10200;49.232;9.222;2023-10-09T11:36:18;20.15;;;5.22;;
20080;SDS011;10200;49.232;9.222;2023-10-09T11:39:05;11.45;;;4.85;;
20080;SDS011;10200;49.232;9.222;2023-10-09T11:42:03;21.33;;;5.45;;
20080;SDS011;10200;49.232;9.222;2023-10-09T11:44:37;22.10;;;5.80;;
20080;SDS011;10200;49.232;9.222;2023-10-09T11:47:04;14.77;;;6.50;;
20080;SDS011;10200;49.232;9.222;2023-10-09T11:49:55;15.68;;;5.18;;
20080;SDS011;10200;49.232;9.222;2023-10-09T11:52:28;18.73;;;6.07;;
20080;SDS011;10200;49.232;9.222;2023-10-09T11:55:04;15.75;;;5.32;;
20080;SDS011;10200;49.232;9.222;2023-10-09T11:57:39;19.90;;;6.22;;
20080;SDS011;10200;49.232;9.222;2023-10-09T12:00:05;13.73;;;5.70;;
20080;SDS011;10200;49.232;9.222;2023-10-09T12:02:54;13.75;;;5.20;;
20080;SDS011;10200;49.232;9.222;2023-10-09T12:05:20;15.10;;;4.22;;
20080;SDS011;10200;49.232;9.222;2023-10-09T12:07:46;10.82;;;4.43;;
20080;SDS011;10200;49.232;9.222;2023-10-09T12:10:21;16.73;;;5.10;;
20080;SDS011;10200;49.232;9.222;2023-10-09T12:12:54;15.45;;;4.55;;
20080;SDS011;10200;49.232;9.222;2023-10-09T12:15:23;12.65;;;4.05;;
20080;SDS011;10200;49.232;9.222;2023-10-09T12:17:49;20.98;;;4.63;;
20080;SDS011;10200;49.232;9.222;2023-10-09T12:20:18;16.35;;;4.25;;
20080;SDS011;10200;49.232;9.222;2023-10-09T12:22:58;26.58;;;4.40;;
20080;SDS011;10200;49.232;9.222;2023-10-09T12:25:25;10.93;;;3.63;;
20080;SDS011;10200;49.232;9.222;2023-10-09T12:27:56;10.75;;;3.45;;
20080;SDS011;10200;49.232;9.222;2023-10-09T12:30:27;18.38;;;4.53;;
20080;SDS011;10200;49.232;9.222;2023-10-09T12:32:57;12.27;;;4.32;;
20080;SDS011;10200;49.232;9.222;2023-10-09T12:35:23;13.23;;;4.57;;
20080;SDS011;10200;49.232;9.222;2023-10-09T12:37:50;21.58;;;4.22;;
20080;SDS011;10200;49.232;9.222;2023-10-09T12:40:22;19.02;;;4.57;;
20080;SDS011;10200;49.232;9.222;2023-10-09T12:42:56;13.23;;;4.30;;
20080;SDS011;10200;49.232;9.222;2023-10-09T12:45:24;17.70;;;4.28;;
20080;SDS011;10200;49.232;9.222;2023-10-09T12:47:57;13.65;;;7.13;;
20080;SDS011;10200;49.232;9.222;2023-10-09T12:50:27;18.17;;;6.93;;
20080;SDS011;10200;49.232;9.222;2023-10-09T12:52:57;13.07;;;5.05;;
20080;SDS011;10200;49.232;9.222;2023-10-09T12:55:36;12.80;;;4.95;;
20080;SDS011;10200;49.232;9.222;2023-10-09T12:58:05;17.92;;;5.25;;
20080;SDS011;10200;49.232;9.222;2023-10-09T13:00:35;21.25;;;5.40;;
20080;SDS011;10200;49.232;9.222;2023-10-09T13:03:06;12.82;;;4.75;;
20080;SDS011;10200;49.232;9.222;2023-10-09T13:05:42;22.70;;;5.30;;
20080;SDS011;10200;49.232;9.222;2023-10-09T13:08:27;15.68;;;5.07;;
20080;SDS011;10200;49.232;9.222;2023-10-09T13:10:57;14.82;;;4.10;;
20080;SDS011;10200;49.232;9.222;2023-10-09T13:13:29;21.13;;;5.07;;
20080;SDS011;10200;49.232;9.222;2023-10-09T13:16:17;11.45;;;3.88;;
20080;SDS011;10200;49.232;9.222;2023-10-09T13:21:26;14.10;;;3.50;;
20080;SDS011;10200;49.232;9.222;2023-10-09T13:23:59;9.18;;;3.67;;
20080;SDS011;10200;49.232;9.222;2023-10-09T13:26:26;14.45;;;3.90;;
20080;SDS011;10200;49.232;9.222;2023-10-09T13:28:56;9.93;;;3.70;;
20080;SDS011;10200;49.232;9.222;2023-10-09T13:31:23;7.55;;;3.22;;
20080;SDS011;10200;49.232;9.222;2023-10-09T13:33:53;11.73;;;3.88;;
20080;SDS011;10200;49.232;9.222;2023-10-09T13:36:24;14.88;;;3.70;;
20080;SDS011;10200;49.232;9.222;2023-10-09T13:38:56;11.63;;;3.78;;
20080;SDS011;10200;49.232;9.222;2023-10-09T13:41:43;12.55;;;5.18;;
20080;SDS011;10200;49.232;9.222;2023-10-09T13:44:09;11.82;;;4.38;;
20080;SDS011;10200;49.232;9.222;2023-10-09T13:46:34;14.93;;;3.92;;
20080;SDS011;10200;49.232;9.222;2023-10-09T13:49:06;15.52;;;3.95;;
20080;SDS011;10200;49.232;9.222;2023-10-09T13:51:37;14.95;;;3.83;;
20080;SDS011;10200;49.232;9.222;2023-10-09T13:54:08;14.38;;;4.00;;
20080;SDS011;10200;49.232;9.222;2023-10-09T13:56:34;9.57;;;3.78;;
20080;SDS011;10200;49.232;9.222;2023-10-09T13:59:04;12.90;;;4.03;;
20080;SDS011;10200;49.232;9.222;2023-10-09T14:01:35;15.70;;;3.85;;
20080;SDS011;10200;49.232;9.222;2023-10-09T14:04:04;20.23;;;4.32;;
20080;SDS011;10200;49.232;9.222;2023-10-09T14:06:32;14.77;;;8.35;;
20080;SDS011;10200;49.232;9.222;2023-10-09T14:08:58;16.55;;;5.13;;
20080;SDS011;10200;49.232;9.222;2023-10-09T14:11:26;18.58;;;4.45;;
20080;SDS011;10200;49.232;9.222;2023-10-09T14:13:52;12.18;;;4.82;;
20080;SDS011;10200;49.232;9.222;2023-10-09T14:16:18;13.05;;;4.63;;
20080;SDS011;10200;49.232;9.222;2023-10-09T14:18:56;11.05;;;3.72;;
20080;SDS011;10200;49.232;9.222;2023-10-09T14:21:26;19.55;;;4.95;;
20080;SDS011;10200;49.232;9.222;2023-10-09T14:23:58;13.07;;;4.22;;
20080;SDS011;10200;49.232;9.222;2023-10-09T14:26:24;17.25;;;4.47;;
20080;SDS011;10200;49.232;9.222;2023-10-09T14:28:51;8.57;;;3.38;;
20080;SDS011;10200;49.232;9.222;2023-10-09T14:31:18;14.10;;;4.20;;
20080;SDS011;10200;49.232;9.222;2023-10-09T14:33:51;13.15;;;3.78;;
20080;SDS011;10200;49.232;9.222;2023-10-09T14:36:20;11.48;;;4.70;;
20080;SDS011;10200;49.232;9.222;2023-10-09T14:38:47;15.15;;;4.38;;
20080;SDS011;10200;49.232;9.222;2023-10-09T14:41:17;15.35;;;5.50;;
20080;SDS011;10200;49.232;9.222;2023-10-09T14:43:50;20.65;;;5.03;;
20080;SDS011;10200;49.232;9.222;2023-10-09T14:46:17;10.30;;;3.88;;
20080;SDS011;10200;49.232;9.222;2023-10-09T14:48:48;9.85;;;3.78;;
20080;SDS011;10200;49.232;9.222;2023-10-09T14:51:14;15.00;;;4.03;;
20080;SDS011;10200;49.232;9.222;2023-10-09T14:53:40;13.70;;;4.32;;
20080;SDS011;10200;49.232;9.222;2023-10-09T14:56:06;14.05;;;4.38;;
20080;SDS011;10200;49.232;9.222;2023-10-09T14:58:38;13.93;;;3.95;;
20080;SDS011;10200;49.232;9.222;2023-10-09T15:01:07;10.52;;;3.22;;
20080;SDS011;10200;49.232;9.222;2023-10-09T15:03:40;11.93;;;4.80;;
20080;SDS011;10200;49.232;9.222;2023-10-09T15:06:08;9.77;;;4.70;;
20080;SDS011;10200;49.232;9.222;2023-10-09T15:08:36;13.60;;;4.32;;
20080;SDS011;10200;49.232;9.222;2023-10-09T15:11:02;9.10;;;3.28;;
20080;SDS011;10200;49.232;9.222;2023-10-09T15:13:27;13.57;;;3.72;;
20080;SDS011;10200;49.232;9.222;2023-10-09T15:15:54;9.00;;;4.10;;
20080;SDS011;10200;49.232;9.222;2023-10-09T15:18:20;11.10;;;4.45;;
20080;SDS011;10200;49.232;9.222;2023-10-09T15:20:47;13.57;;;4.78;;
20080;SDS011;10200;49.232;9.222;2023-10-09T15:23:14;10.38;;;3.75;;
20080;SDS011;10200;49.232;9.222;2023-10-09T15:25:39;15.15;;;5.55;;
20080;SDS011;10200;49.232;9.222;2023-10-09T15:28:07;13.15;;;4.82;;
20080;SDS011;10200;49.232;9.222;2023-10-09T15:30:34;10.57;;;3.75;;
20080;SDS011;10200;49.232;9.222;2023-10-09T15:33:06;11.70;;;3.90;;
20080;SDS011;10200;49.232;9.222;2023-10-09T15:35:32;8.07;;;3.47;;
20080;SDS011;10200;49.232;9.222;2023-10-09T15:38:01;9.30;;;3.95;;
20080;SDS011;10200;49.232;9.222;2023-10-09T15:40:29;15.13;;;3.63;;
20080;SDS011;10200;49.232;9.222;2023-10-09T15:42:58;9.90;;;3.60;;
20080;SDS011;10200;49.232;9.222;2023-10-09T15:45:24;11.30;;;4.25;;
20080;SDS011;10200;49.232;9.222;2023-10-09T15:47:53;8.60;;;3.70;;
20080;SDS011;10200;49.232;9.222;2023-10-09T15:50:19;7.78;;;4.13;;
20080;SDS011;10200;49.232;9.222;2023-10-09T15:52:51;10.68;;;3.83;;
20080;SDS011;10200;49.232;9.222;2023-10-09T15:55:18;16.30;;;4.90;;
20080;SDS011;10200;49.232;9.222;2023-10-09T15:57:50;12.57;;;4.20;;
20080;SDS011;10200;49.232;9.222;2023-10-09T16:00:19;21.08;;;9.23;;